首页
METAR-TAF:

METAR-TAF

机场 :

布萊茲諾頓皇家空軍基地

Brize Norton, 英格兰

纬度: 51-45N, 经度: 001-35W, 海拔: 88米

当前天气观测

该预报发布于51分钟前的05:50 UTC
风速3节,风向东转东北
温度 18°C
湿度 100%
气压 1016 hPa
能見度: 2500
多云层高于400英尺
阴天层高于1000英尺
小雨

METAR: EGVN 250550Z 06003KT 2500 -RA BKN004 OVC010 18/18 Q1016 BECMG 4000 FEW004 BKN008 RMK YLO2 BECMG GRN

时间: 07:41 (06:41 UTC)

预报

该预报发布于1小时和11分钟前的05:30 UTC
预报有效从25日的 06点(UTC)到 26日的 06点(UTC)
风速3节,风向多变
能见度10公里或以上
多云层高于4500英尺
短暂存在
从 25日的 06点(UTC)到 25日的 12点(UTC)
能見度: 4500
多云层高于800英尺
小雨
几率 40% :
短暂存在
从 25日的 06点(UTC)到 25日的 10点(UTC)
能見度: 3000
多云层高于400英尺
几率 30% :
短暂存在
从 25日的 06点(UTC)到 25日的 10点(UTC)
能見度: 2000
雨, 毛毛雨
几率 40% :
短暂存在
从 25日的 12点(UTC)到 25日的 17点(UTC)
能見度: 7000
散云层高于1500英尺
小阵雨
成为
从 25日的 17点(UTC)到 25日的 20点(UTC)
多云层高于1000英尺

TAF: EGVN 250530Z 2506/2606 VRB03KT 9999 BKN045 TEMPO 2506/2512 4500 -RA BKN008 PROB40 TEMPO 2506/2510 3000 RA BKN004 PROB30 TEMPO 2506/2510 2000 RADZ PROB40 TEMPO 2512/2517 7000 -SHRA SCT015 BECMG 2517/2520 BKN010

超过4000个机场的气象观测和天气预报(METAR&TAF报告)。

可查询的气象台以黄色和红色小点在地图上表示。

将鼠标移到小点上方,可查看气象台名称。

然后点击查看天气观测和预报。

如需切换地图:点击带黑十字的绿色按钮放大地图;点击带横线的绿色按钮缩小地图;或者点击绿色箭头查看邻近地区的地图。


METAR-TAF: